Time;durP1;ratioP1;P1;durP2;ratioP2;P2;SDS_P1;SDS_P2;PMS_P1;PMS_P2;Temp;Humidity;BMP_temperature;BMP_pressure;BME280_temperature;BME280_humidity;BME280_pressure;Samples;Min_cycle;Max_cycle;Signal;HPM_P1;HPM_P2
2023/02/18 00:00:53;;;;;;;15.10;11.10;;;10.00;99.90;;;;;;482974;246;28283;-74
2023/02/18 00:02:57;;;;;;;12.23;10.07;;;10.00;99.90;;;;;;482991;246;28249;-76
2023/02/18 00:04:55;;;;;;;11.73;9.70;;;10.00;99.90;;;;;;482889;246;28086;-76
2023/02/18 00:06:56;;;;;;;11.43;10.17;;;10.00;99.90;;;;;;483022;246;28430;-75
2023/02/18 00:09:00;;;;;;;13.30;11.50;;;10.00;99.90;;;;;;483058;246;27671;-76
2023/02/18 00:10:59;;;;;;;10.77;9.27;;;10.00;99.90;;;;;;483241;239;27649;-75
2023/02/18 00:13:00;;;;;;;11.40;10.27;;;10.00;99.90;;;;;;487927;244;28187;-75
2023/02/18 00:15:02;;;;;;;11.37;10.20;;;10.00;99.90;;;;;;491372;242;27832;-76
2023/02/18 00:17:03;;;;;;;12.10;10.47;;;10.00;99.90;;;;;;491455;240;28438;-75
2023/02/18 00:19:04;;;;;;;10.53;8.70;;;10.00;99.90;;;;;;491392;240;28413;-76
2023/02/18 00:21:05;;;;;;;15.00;10.07;;;10.00;99.90;;;;;;491525;240;27754;-75
2023/02/18 00:23:07;;;;;;;12.93;10.40;;;10.00;99.90;;;;;;491426;240;27614;-76
2023/02/18 00:25:08;;;;;;;13.53;10.60;;;10.00;99.90;;;;;;491484;240;27777;-76
2023/02/18 00:27:09;;;;;;;10.73;9.57;;;10.00;99.90;;;;;;491494;240;27987;-75
2023/02/18 00:29:10;;;;;;;14.93;11.43;;;10.00;99.90;;;;;;491314;240;28202;-74
2023/02/18 00:31:12;;;;;;;12.53;10.83;;;10.00;99.90;;;;;;491398;240;27758;-75
2023/02/18 00:33:13;;;;;;;12.57;9.30;;;10.00;99.90;;;;;;491511;240;28554;-75
2023/02/18 00:35:14;;;;;;;11.53;10.27;;;10.00;99.90;;;;;;491380;240;28045;-75
2023/02/18 00:37:15;;;;;;;11.43;10.23;;;10.10;99.90;;;;;;491463;240;27971;-74
2023/02/18 00:39:17;;;;;;;12.20;10.33;;;10.00;99.90;;;;;;491472;240;28004;-74
2023/02/18 00:41:18;;;;;;;11.43;10.23;;;10.00;99.90;;;;;;491527;240;27994;-74
2023/02/18 00:43:19;;;;;;;11.63;9.80;;;10.00;99.90;;;;;;491552;240;27973;-76
2023/02/18 00:45:21;;;;;;;12.80;10.30;;;10.00;99.90;;;;;;491447;240;28140;-74
2023/02/18 00:47:22;;;;;;;13.30;10.70;;;10.00;99.90;;;;;;491556;240;28422;-74
2023/02/18 00:49:24;;;;;;;12.93;11.00;;;10.00;99.90;;;;;;491554;240;28453;-75
2023/02/18 00:51:25;;;;;;;9.17;8.20;;;10.00;99.90;;;;;;491512;240;27939;-75
2023/02/18 00:53:26;;;;;;;12.13;9.40;;;10.00;99.90;;;;;;491545;240;27938;-75
2023/02/18 00:55:27;;;;;;;10.50;9.23;;;10.00;99.90;;;;;;491392;240;27925;-75
2023/02/18 00:57:29;;;;;;;9.47;7.17;;;10.00;99.90;;;;;;491488;242;28009;-75
2023/02/18 00:59:30;;;;;;;9.33;8.23;;;10.00;99.90;;;;;;491473;240;28316;-75
2023/02/18 01:01:31;;;;;;;7.33;6.63;;;10.00;99.90;;;;;;491258;240;28425;-75
2023/02/18 01:03:33;;;;;;;9.33;8.17;;;10.00;99.90;;;;;;491274;242;28132;-75
2023/02/18 01:05:34;;;;;;;8.20;7.10;;;10.00;99.90;;;;;;491367;240;27706;-75
2023/02/18 01:07:35;;;;;;;9.07;7.70;;;9.90;99.90;;;;;;491517;240;27993;-75
2023/02/18 01:09:36;;;;;;;8.77;7.60;;;9.90;99.90;;;;;;491508;242;27922;-75
2023/02/18 01:11:38;;;;;;;9.57;7.63;;;9.90;99.90;;;;;;491446;242;28000;-75
2023/02/18 01:13:39;;;;;;;9.80;7.80;;;9.90;99.90;;;;;;491449;240;27741;-75
2023/02/18 01:15:40;;;;;;;9.93;8.03;;;9.90;99.90;;;;;;491442;240;27992;-76
2023/02/18 01:17:41;;;;;;;11.13;9.37;;;9.90;99.90;;;;;;491425;239;28037;-76
2023/02/18 01:19:43;;;;;;;10.80;8.73;;;9.90;99.90;;;;;;491531;240;28013;-76
2023/02/18 01:21:44;;;;;;;9.83;8.50;;;9.90;99.90;;;;;;491422;240;27892;-76
2023/02/18 01:23:45;;;;;;;10.23;8.67;;;9.90;99.90;;;;;;491489;240;27605;-76
2023/02/18 01:25:46;;;;;;;10.50;8.50;;;10.00;99.90;;;;;;491530;240;27691;-76
2023/02/18 01:27:48;;;;;;;10.10;9.10;;;9.90;99.90;;;;;;491420;240;27758;-76
2023/02/18 01:29:49;;;;;;;10.23;9.03;;;10.00;99.90;;;;;;491463;240;28427;-75
2023/02/18 01:31:50;;;;;;;12.17;9.63;;;10.00;99.90;;;;;;491547;240;28491;-76
2023/02/18 01:33:51;;;;;;;13.17;10.27;;;10.00;99.90;;;;;;491511;242;28040;-76
2023/02/18 01:35:53;;;;;;;9.97;8.80;;;10.00;99.90;;;;;;491502;240;28054;-76
2023/02/18 01:37:54;;;;;;;11.17;9.97;;;9.90;99.90;;;;;;491472;240;27923;-76
2023/02/18 01:39:55;;;;;;;12.50;9.90;;;10.00;99.90;;;;;;491495;240;27952;-76
2023/02/18 01:41:56;;;;;;;11.50;9.77;;;10.00;99.90;;;;;;491558;240;28055;-76
2023/02/18 01:43:58;;;;;;;10.93;9.67;;;9.90;99.90;;;;;;491473;240;28004;-75
2023/02/18 01:45:59;;;;;;;11.60;9.73;;;9.90;99.90;;;;;;491417;242;27850;-76
2023/02/18 01:48:00;;;;;;;11.40;8.83;;;9.90;99.90;;;;;;491559;240;28424;-76
2023/02/18 01:50:01;;;;;;;8.00;7.23;;;9.90;99.90;;;;;;491510;240;28335;-76
2023/02/18 01:52:03;;;;;;;8.30;7.40;;;9.90;99.90;;;;;;491527;240;28325;-76
2023/02/18 01:54:04;;;;;;;7.47;6.73;;;9.90;99.90;;;;;;491476;240;28110;-75
2023/02/18 01:56:05;;;;;;;7.93;6.93;;;9.90;99.90;;;;;;491549;240;28581;-76
2023/02/18 01:58:06;;;;;;;8.17;6.80;;;9.90;99.90;;;;;;491556;240;27905;-76
2023/02/18 02:00:10;;;;;;;8.17;7.17;;;9.90;99.90;;;;;;491489;242;27989;-76
2023/02/18 02:02:09;;;;;;;9.33;8.40;;;9.90;99.90;;;;;;491352;242;27899;-76
2023/02/18 02:04:10;;;;;;;11.63;8.60;;;9.90;99.90;;;;;;491514;236;27923;-76
2023/02/18 02:06:11;;;;;;;11.87;9.60;;;9.90;99.90;;;;;;491433;240;28099;-75
2023/02/18 02:08:13;;;;;;;9.07;7.67;;;9.90;99.90;;;;;;491551;240;28177;-76
2023/02/18 02:10:16;;;;;;;11.33;9.97;;;9.80;99.90;;;;;;491382;242;27939;-76
2023/02/18 02:12:15;;;;;;;9.30;8.40;;;9.80;99.90;;;;;;491332;242;27827;-76
2023/02/18 02:14:17;;;;;;;12.67;10.00;;;9.90;99.90;;;;;;491522;240;27952;-76
2023/02/18 02:16:18;;;;;;;11.30;10.03;;;9.80;99.90;;;;;;491523;240;27958;-76
2023/02/18 02:18:19;;;;;;;12.50;10.33;;;9.80;99.90;;;;;;491560;240;28396;-76
2023/02/18 02:22:27;;;;;;;13.47;9.30;;;9.80;99.90;;;;;;475503;237;27946;-76
2023/02/18 02:24:28;;;;;;;12.07;9.60;;;9.80;99.90;;;;;;479667;248;27514;-76
2023/02/18 02:26:30;;;;;;;12.47;10.63;;;9.80;99.90;;;;;;479623;247;28066;-76
2023/02/18 02:28:31;;;;;;;15.10;11.80;;;9.80;99.90;;;;;;479486;247;28011;-76
2023/02/18 02:30:32;;;;;;;19.00;11.10;;;9.80;99.90;;;;;;479819;247;27637;-76
2023/02/18 02:32:33;;;;;;;14.60;11.20;;;9.80;99.90;;;;;;479844;247;27616;-76
2023/02/18 02:34:35;;;;;;;15.53;12.17;;;9.80;99.90;;;;;;479828;247;28014;-76
2023/02/18 02:36:36;;;;;;;14.70;11.90;;;9.80;99.90;;;;;;479865;247;28556;-76
2023/02/18 02:38:37;;;;;;;17.30;12.07;;;9.80;99.90;;;;;;479793;247;28585;-76
2023/02/18 02:40:38;;;;;;;15.97;13.33;;;9.80;99.90;;;;;;479445;247;27761;-76
2023/02/18 02:42:40;;;;;;;16.67;11.10;;;9.80;99.90;;;;;;479479;247;28023;-76
2023/02/18 02:44:41;;;;;;;13.97;12.03;;;9.80;99.90;;;;;;479568;247;28155;-76
2023/02/18 02:46:42;;;;;;;11.27;10.07;;;9.80;99.90;;;;;;479688;247;27865;-76
2023/02/18 02:48:43;;;;;;;14.67;11.07;;;9.80;99.90;;;;;;479766;247;27778;-76
2023/02/18 02:50:45;;;;;;;14.37;11.30;;;9.80;99.90;;;;;;479805;247;27895;-76
2023/02/18 02:52:46;;;;;;;14.40;11.70;;;9.80;99.90;;;;;;479408;247;27868;-76
2023/02/18 02:54:47;;;;;;;14.43;11.50;;;9.80;99.90;;;;;;479051;247;27910;-76
2023/02/18 02:56:48;;;;;;;17.73;12.83;;;9.80;99.90;;;;;;479180;247;28689;-75
2023/02/18 02:58:50;;;;;;;15.17;12.77;;;9.80;99.90;;;;;;479750;247;27999;-76
2023/02/18 03:00:51;;;;;;;17.43;12.77;;;9.70;99.90;;;;;;479802;247;27801;-76
2023/02/18 03:02:52;;;;;;;13.97;11.20;;;9.70;99.90;;;;;;479845;247;27618;-76
2023/02/18 03:04:54;;;;;;;12.80;11.37;;;9.80;99.90;;;;;;479729;247;27970;-76
2023/02/18 03:06:55;;;;;;;14.20;11.00;;;9.80;99.90;;;;;;479800;247;27932;-76
2023/02/18 03:08:56;;;;;;;15.40;12.47;;;9.80;99.90;;;;;;479826;247;27890;-76
2023/02/18 03:10:58;;;;;;;15.30;12.03;;;9.80;99.90;;;;;;479652;247;27994;-76
2023/02/18 03:12:59;;;;;;;14.87;12.10;;;9.80;99.90;;;;;;479824;247;28488;-76
2023/02/18 03:15:00;;;;;;;18.37;12.60;;;9.80;99.90;;;;;;479747;247;28569;-76
2023/02/18 03:17:01;;;;;;;15.70;12.27;;;9.80;99.90;;;;;;479814;247;27849;-76
2023/02/18 03:19:02;;;;;;;14.60;11.70;;;9.80;99.90;;;;;;479795;247;28087;-76
2023/02/18 03:21:04;;;;;;;15.27;12.00;;;9.80;99.90;;;;;;479780;247;28112;-76
2023/02/18 03:23:05;;;;;;;13.17;11.30;;;9.80;99.90;;;;;;479873;247;28000;-76
2023/02/18 03:25:06;;;;;;;15.07;12.80;;;9.80;99.90;;;;;;479832;247;28189;-76
2023/02/18 03:27:08;;;;;;;16.00;12.53;;;9.70;99.90;;;;;;479819;247;28052;-76
2023/02/18 03:29:09;;;;;;;16.10;12.90;;;9.80;99.90;;;;;;479828;247;27957;-76
2023/02/18 03:31:11;;;;;;;13.47;12.07;;;9.80;99.90;;;;;;479667;247;28088;-76
2023/02/18 03:33:11;;;;;;;12.70;11.00;;;9.80;99.90;;;;;;479732;247;27987;-76
2023/02/18 03:35:13;;;;;;;15.37;12.47;;;9.80;99.90;;;;;;479884;247;28070;-76
2023/02/18 03:37:14;;;;;;;15.10;11.23;;;9.80;99.90;;;;;;479872;247;27984;-76
2023/02/18 03:39:15;;;;;;;14.50;12.40;;;9.80;99.90;;;;;;479867;247;28290;-76
2023/02/18 03:41:16;;;;;;;15.90;12.03;;;9.80;99.90;;;;;;479843;247;28014;-76
2023/02/18 03:43:18;;;;;;;13.97;12.00;;;9.80;99.90;;;;;;479820;247;28544;-76
2023/02/18 03:45:19;;;;;;;12.10;10.17;;;9.80;99.90;;;;;;479874;247;28156;-76
2023/02/18 03:47:20;;;;;;;21.37;13.13;;;9.80;99.90;;;;;;479826;247;28038;-76
2023/02/18 03:49:21;;;;;;;17.00;12.27;;;9.70;99.90;;;;;;479840;247;27980;-76
2023/02/18 03:51:23;;;;;;;14.60;11.50;;;9.80;99.90;;;;;;479839;247;28087;-76
2023/02/18 03:53:24;;;;;;;16.80;12.10;;;9.70;99.90;;;;;;479865;247;27975;-75
2023/02/18 03:55:25;;;;;;;15.57;13.30;;;9.70;99.90;;;;;;479857;247;27897;-76
2023/02/18 03:57:26;;;;;;;13.03;11.60;;;9.70;99.90;;;;;;479807;247;28194;-76
2023/02/18 03:59:28;;;;;;;16.53;12.80;;;9.70;99.90;;;;;;479872;247;28325;-76
2023/02/18 04:01:29;;;;;;;13.60;11.57;;;9.80;99.90;;;;;;479871;247;28586;-76
2023/02/18 04:03:30;;;;;;;15.13;12.00;;;9.70;99.90;;;;;;479785;247;27905;-76
2023/02/18 04:05:31;;;;;;;14.10;11.60;;;9.70;99.90;;;;;;479849;247;27922;-76
2023/02/18 04:07:33;;;;;;;15.07;12.00;;;9.70;99.90;;;;;;479760;247;27952;-76
2023/02/18 04:09:34;;;;;;;13.40;11.97;;;9.70;99.90;;;;;;479890;247;27837;-76
2023/02/18 04:11:35;;;;;;;15.80;11.97;;;9.70;99.90;;;;;;479880;247;28126;-76
2023/02/18 04:13:36;;;;;;;13.40;11.57;;;9.70;99.90;;;;;;479821;247;27517;-76
2023/02/18 04:15:38;;;;;;;14.27;11.40;;;9.70;99.90;;;;;;479817;247;28136;-76
2023/02/18 04:17:39;;;;;;;14.40;12.60;;;9.70;99.90;;;;;;479845;247;28966;-76
2023/02/18 04:19:40;;;;;;;17.37;13.93;;;9.60;99.90;;;;;;479841;247;28536;-76
2023/02/18 04:21:41;;;;;;;14.60;11.80;;;9.70;99.90;;;;;;479894;247;27661;-76
2023/02/18 04:23:43;;;;;;;15.60;12.43;;;9.70;99.90;;;;;;479821;247;28013;-76
2023/02/18 04:25:44;;;;;;;14.20;11.30;;;9.70;99.90;;;;;;479866;247;27911;-76
2023/02/18 04:27:45;;;;;;;15.40;12.00;;;9.70;99.90;;;;;;479811;247;27968;-76
2023/02/18 04:29:46;;;;;;;13.23;11.03;;;9.60;99.90;;;;;;479751;247;27744;-76
2023/02/18 04:31:48;;;;;;;14.07;11.70;;;9.60;99.90;;;;;;479655;247;27894;-76
2023/02/18 04:33:49;;;;;;;13.30;11.70;;;9.60;99.90;;;;;;479800;247;27941;-76
2023/02/18 04:35:50;;;;;;;15.63;10.73;;;9.60;99.90;;;;;;479644;247;28610;-76
2023/02/18 04:37:51;;;;;;;12.20;10.37;;;9.60;99.90;;;;;;479813;247;29270;-76
2023/02/18 04:39:53;;;;;;;11.70;9.93;;;9.60;99.90;;;;;;479756;247;27917;-75
2023/02/18 04:41:54;;;;;;;12.17;10.70;;;9.60;99.90;;;;;;479859;247;27909;-76
2023/02/18 04:43:55;;;;;;;10.80;9.20;;;9.60;99.90;;;;;;479871;247;27957;-76
2023/02/18 04:45:57;;;;;;;11.33;9.70;;;9.60;99.90;;;;;;479866;247;28011;-77
2023/02/18 04:47:58;;;;;;;13.47;9.13;;;9.60;99.90;;;;;;479896;247;27997;-76
2023/02/18 04:49:59;;;;;;;12.93;9.40;;;9.60;99.90;;;;;;479896;247;27915;-76
2023/02/18 04:52:00;;;;;;;13.53;9.73;;;9.50;99.90;;;;;;479813;247;27799;-76
2023/02/18 04:54:02;;;;;;;11.10;9.50;;;9.60;99.90;;;;;;479910;247;27884;-76
2023/02/18 04:56:03;;;;;;;10.83;9.60;;;9.60;99.90;;;;;;479880;247;27709;-76
2023/02/18 04:58:04;;;;;;;11.50;9.63;;;9.60;99.90;;;;;;479897;247;29106;-76
2023/02/18 05:00:05;;;;;;;13.20;11.17;;;9.50;99.90;;;;;;479927;247;28315;-76
2023/02/18 05:02:07;;;;;;;11.10;9.27;;;9.50;99.90;;;;;;479849;247;28432;-76
2023/02/18 05:04:08;;;;;;;11.57;10.27;;;9.50;99.90;;;;;;479889;247;27696;-76
2023/02/18 05:06:09;;;;;;;11.57;9.90;;;9.50;99.90;;;;;;479494;247;28031;-76
2023/02/18 05:08:10;;;;;;;14.70;10.20;;;9.50;99.90;;;;;;479435;247;28134;-76
2023/02/18 05:10:12;;;;;;;11.60;9.47;;;9.50;99.90;;;;;;479527;247;27971;-76
2023/02/18 05:12:13;;;;;;;11.10;9.50;;;9.50;99.90;;;;;;479601;247;27894;-76
2023/02/18 05:14:14;;;;;;;10.40;9.30;;;9.50;99.90;;;;;;479673;247;27880;-76
2023/02/18 05:16:15;;;;;;;11.70;9.20;;;9.40;99.90;;;;;;479822;247;27895;-76
2023/02/18 05:18:17;;;;;;;12.37;9.80;;;9.50;99.90;;;;;;479828;247;27862;-76
2023/02/18 05:20:18;;;;;;;14.43;10.93;;;9.50;99.90;;;;;;479696;247;28387;-75
2023/02/18 05:22:19;;;;;;;12.83;10.40;;;9.50;99.90;;;;;;479800;247;28499;-76
2023/02/18 05:24:20;;;;;;;12.80;10.20;;;9.40;99.90;;;;;;479854;247;28390;-76
2023/02/18 05:26:22;;;;;;;12.30;9.70;;;9.40;99.90;;;;;;473996;247;27815;-76
2023/02/18 05:28:23;;;;;;;14.10;10.93;;;9.40;99.90;;;;;;484961;244;27894;-76
2023/02/18 05:30:24;;;;;;;14.97;11.97;;;9.40;99.90;;;;;;484709;245;27912;-76
2023/02/18 05:32:25;;;;;;;13.90;10.80;;;9.50;99.90;;;;;;484540;245;27929;-76
2023/02/18 05:34:27;;;;;;;13.80;10.80;;;9.40;99.90;;;;;;484636;245;27988;-76
2023/02/18 05:36:28;;;;;;;13.40;10.00;;;9.50;99.90;;;;;;484525;245;28121;-76
2023/02/18 05:38:29;;;;;;;10.70;9.33;;;9.50;99.90;;;;;;484626;245;28583;-76
2023/02/18 05:40:30;;;;;;;14.57;11.33;;;9.40;99.90;;;;;;484403;245;28411;-76
2023/02/18 05:42:32;;;;;;;14.10;11.20;;;9.40;99.90;;;;;;484573;245;28405;-76
2023/02/18 05:44:33;;;;;;;15.10;11.77;;;9.50;99.90;;;;;;484579;245;27750;-76
2023/02/18 05:46:34;;;;;;;17.03;12.60;;;9.40;99.90;;;;;;484582;245;27801;-76
2023/02/18 05:48:35;;;;;;;17.30;13.00;;;9.50;99.90;;;;;;484665;245;27634;-76
2023/02/18 05:50:37;;;;;;;15.23;12.10;;;9.50;99.90;;;;;;484642;245;27738;-75
2023/02/18 05:52:38;;;;;;;16.03;12.60;;;9.50;99.90;;;;;;484660;245;27930;-76
2023/02/18 05:54:39;;;;;;;17.40;13.77;;;9.50;99.90;;;;;;484619;245;27915;-76
2023/02/18 05:56:40;;;;;;;16.33;13.07;;;9.50;99.90;;;;;;484665;245;27943;-76
2023/02/18 05:58:42;;;;;;;39.50;13.90;;;9.50;99.90;;;;;;484669;245;28399;-75
2023/02/18 06:00:43;;;;;;;16.43;13.63;;;9.50;99.90;;;;;;484623;245;28005;-76
2023/02/18 06:02:44;;;;;;;19.30;14.40;;;9.50;99.90;;;;;;484671;245;27746;-76
2023/02/18 06:04:45;;;;;;;20.03;14.40;;;9.50;99.90;;;;;;484635;245;27930;-77
2023/02/18 06:06:47;;;;;;;18.97;14.77;;;9.60;99.90;;;;;;484586;245;27992;-76
2023/02/18 06:08:48;;;;;;;19.87;15.63;;;9.60;99.90;;;;;;484606;245;27880;-76
2023/02/18 06:10:49;;;;;;;18.63;15.60;;;9.60;99.90;;;;;;484496;245;28303;-76
2023/02/18 06:12:50;;;;;;;22.77;14.73;;;9.60;99.90;;;;;;484428;245;27684;-76
2023/02/18 06:14:52;;;;;;;21.83;15.07;;;9.60;99.90;;;;;;484420;245;27617;-77
2023/02/18 06:16:53;;;;;;;19.23;15.20;;;9.60;99.90;;;;;;484621;245;28134;-77
2023/02/18 06:18:54;;;;;;;20.67;15.70;;;9.60;99.90;;;;;;484644;245;28638;-77
2023/02/18 06:20:55;;;;;;;23.10;16.30;;;9.70;99.90;;;;;;484702;245;27889;-77
2023/02/18 06:22:57;;;;;;;16.63;13.37;;;9.70;99.90;;;;;;484672;245;28051;-76
2023/02/18 06:24:58;;;;;;;19.27;15.60;;;9.70;99.90;;;;;;484601;245;27743;-77
2023/02/18 06:26:59;;;;;;;18.63;14.80;;;9.70;99.90;;;;;;484464;245;28031;-77
2023/02/18 06:29:00;;;;;;;19.90;15.67;;;9.70;99.90;;;;;;484678;245;27979;-77
2023/02/18 06:31:02;;;;;;;22.73;17.63;;;9.70;99.90;;;;;;484638;245;27681;-76
2023/02/18 06:33:03;;;;;;;18.60;15.53;;;9.70;99.90;;;;;;484602;245;28085;-77
2023/02/18 06:35:04;;;;;;;20.53;16.97;;;9.70;99.90;;;;;;484579;245;28219;-76
2023/02/18 06:37:06;;;;;;;20.70;17.00;;;9.80;99.90;;;;;;484439;245;29171;-77
2023/02/18 06:39:07;;;;;;;22.90;16.00;;;9.80;99.90;;;;;;484504;245;28396;-76
2023/02/18 06:41:08;;;;;;;20.43;15.20;;;9.80;99.90;;;;;;484503;245;27967;-77
2023/02/18 06:43:09;;;;;;;24.30;17.20;;;9.80;99.90;;;;;;484633;245;27791;-77
2023/02/18 06:45:11;;;;;;;21.47;16.13;;;9.80;99.90;;;;;;484641;245;27613;-76
2023/02/18 06:47:12;;;;;;;20.90;15.50;;;9.80;99.90;;;;;;484614;245;27542;-76
2023/02/18 06:49:13;;;;;;;20.03;14.80;;;9.80;99.90;;;;;;484543;245;28037;-76
2023/02/18 06:51:18;;;;;;;21.30;17.10;;;9.80;99.90;;;;;;484600;245;27839;-76
2023/02/18 06:53:19;;;;;;;19.53;15.83;;;9.90;99.90;;;;;;484488;245;28384;-76
2023/02/18 06:55:20;;;;;;;19.90;15.00;;;9.90;99.90;;;;;;484463;245;28478;-75
2023/02/18 06:57:21;;;;;;;18.47;14.13;;;9.80;99.90;;;;;;484613;245;28360;-76
2023/02/18 06:59:22;;;;;;;19.83;15.70;;;9.90;99.90;;;;;;484526;245;28372;-76
2023/02/18 07:01:24;;;;;;;18.73;15.07;;;9.90;99.90;;;;;;488550;240;27852;-76
2023/02/18 07:03:25;;;;;;;19.00;14.27;;;9.90;99.90;;;;;;495081;240;27865;-76
2023/02/18 07:05:26;;;;;;;18.87;15.17;;;9.90;99.90;;;;;;494642;240;27970;-76
2023/02/18 07:07:27;;;;;;;17.50;14.40;;;9.90;99.90;;;;;;495063;240;27766;-76
2023/02/18 07:09:29;;;;;;;19.97;14.70;;;9.90;99.90;;;;;;495009;240;27874;-76
2023/02/18 07:11:30;;;;;;;17.80;14.60;;;10.00;99.90;;;;;;495111;240;28255;-76
2023/02/18 07:13:31;;;;;;;23.80;15.00;;;9.90;99.90;;;;;;495004;240;28323;-77
2023/02/18 07:15:32;;;;;;;20.53;15.77;;;9.90;99.90;;;;;;494997;240;27864;-76
2023/02/18 07:17:34;;;;;;;21.07;14.60;;;10.00;99.90;;;;;;494889;240;27973;-76
2023/02/18 07:19:35;;;;;;;18.73;15.50;;;10.00;99.90;;;;;;495084;240;27710;-76
2023/02/18 07:21:36;;;;;;;19.90;15.27;;;9.90;99.90;;;;;;494880;240;27886;-76
2023/02/18 07:23:37;;;;;;;17.33;14.50;;;9.90;99.90;;;;;;494978;240;27953;-76
2023/02/18 07:25:39;;;;;;;20.17;14.87;;;9.90;99.90;;;;;;495005;240;28011;-76
2023/02/18 07:27:40;;;;;;;23.33;16.20;;;9.90;99.90;;;;;;495072;240;29242;-76
2023/02/18 07:29:41;;;;;;;19.70;15.17;;;9.90;99.90;;;;;;495061;240;27846;-76
2023/02/18 07:31:42;;;;;;;20.43;14.73;;;10.00;99.90;;;;;;494634;240;27963;-76
2023/02/18 07:33:44;;;;;;;18.00;14.73;;;10.00;99.90;;;;;;494964;240;27864;-76
2023/02/18 07:35:45;;;;;;;19.73;15.77;;;10.00;99.90;;;;;;494993;240;27811;-76
2023/02/18 07:37:46;;;;;;;17.77;14.47;;;10.00;99.90;;;;;;494973;240;27533;-76
2023/02/18 07:39:48;;;;;;;18.00;14.47;;;10.10;99.90;;;;;;494223;240;28039;-76
2023/02/18 07:41:49;;;;;;;14.80;12.60;;;10.10;99.90;;;;;;494949;240;28539;-76
2023/02/18 07:43:50;;;;;;;16.07;13.53;;;10.10;99.90;;;;;;494907;240;28388;-76
2023/02/18 07:45:51;;;;;;;16.90;13.97;;;10.10;99.90;;;;;;495105;240;28105;-76
2023/02/18 07:47:53;;;;;;;16.90;12.67;;;10.10;99.90;;;;;;495037;240;28099;-75
2023/02/18 07:49:54;;;;;;;17.67;13.43;;;10.10;99.90;;;;;;495107;240;27687;-75
2023/02/18 07:51:55;;;;;;;19.27;14.80;;;10.10;99.90;;;;;;494996;240;27878;-76
2023/02/18 07:53:56;;;;;;;20.63;13.70;;;10.20;99.90;;;;;;494791;240;28178;-76
2023/02/18 07:55:59;;;;;;;17.57;13.20;;;10.20;99.90;;;;;;495075;240;28617;-76
2023/02/18 07:58:01;;;;;;;17.57;13.83;;;10.20;99.90;;;;;;494937;240;28165;-76
2023/02/18 08:00:00;;;;;;;19.90;14.20;;;10.20;99.90;;;;;;494998;240;28023;-76
2023/02/18 08:02:01;;;;;;;16.73;13.43;;;10.20;99.90;;;;;;495092;240;27875;-75
2023/02/18 08:04:03;;;;;;;15.90;12.80;;;10.20;99.90;;;;;;495076;240;27933;-76
2023/02/18 08:06:04;;;;;;;14.90;13.20;;;10.20;99.90;;;;;;495025;240;27985;-76
2023/02/18 08:08:05;;;;;;;16.07;13.50;;;10.20;99.90;;;;;;495079;240;27888;-76
2023/02/18 08:10:06;;;;;;;17.10;13.63;;;10.20;99.90;;;;;;495057;240;28296;-76
2023/02/18 08:12:08;;;;;;;15.70;13.33;;;10.20;99.90;;;;;;494810;240;29284;-76
2023/02/18 08:14:09;;;;;;;22.13;13.90;;;10.20;99.90;;;;;;495053;240;28037;-77
2023/02/18 08:16:10;;;;;;;15.00;12.60;;;10.30;99.90;;;;;;495027;240;27966;-76
2023/02/18 08:18:11;;;;;;;15.27;12.57;;;10.20;99.90;;;;;;495085;237;27928;-76
2023/02/18 08:20:13;;;;;;;15.03;13.20;;;10.30;99.90;;;;;;495068;240;28036;-76
2023/02/18 08:22:14;;;;;;;17.03;13.90;;;10.30;99.90;;;;;;495128;237;27844;-76
2023/02/18 08:24:15;;;;;;;18.00;13.73;;;10.30;99.90;;;;;;495109;240;28377;-76
2023/02/18 08:26:16;;;;;;;17.17;13.40;;;10.20;99.90;;;;;;495030;240;28341;-76
2023/02/18 08:28:18;;;;;;;17.23;13.90;;;10.30;99.90;;;;;;495023;240;27929;-76
2023/02/18 08:30:19;;;;;;;18.80;14.00;;;10.20;99.90;;;;;;494678;240;27922;-77
2023/02/18 08:32:20;;;;;;;15.90;13.10;;;10.20;99.90;;;;;;494403;240;27905;-76
2023/02/18 08:34:21;;;;;;;16.57;13.90;;;10.10;99.90;;;;;;494891;240;28325;-76
2023/02/18 08:36:23;;;;;;;17.97;14.27;;;10.10;99.90;;;;;;495050;240;27723;-76
2023/02/18 08:38:24;;;;;;;17.87;13.63;;;10.10;99.90;;;;;;495118;240;28373;-76
2023/02/18 08:42:29;;;;;;;17.90;13.97;;;10.20;99.90;;;;;;483396;241;27850;-75
2023/02/18 08:44:30;;;;;;;19.67;13.53;;;10.10;99.90;;;;;;483105;246;27944;-74
2023/02/18 08:46:32;;;;;;;16.67;13.50;;;10.10;99.90;;;;;;483499;246;27800;-74
2023/02/18 08:48:33;;;;;;;17.77;13.30;;;10.10;99.90;;;;;;483507;246;27910;-76
2023/02/18 08:50:34;;;;;;;17.63;13.63;;;10.10;99.90;;;;;;483632;246;28125;-77
2023/02/18 08:52:36;;;;;;;19.17;14.40;;;10.10;99.90;;;;;;483750;246;28139;-77
2023/02/18 08:54:37;;;;;;;19.40;14.77;;;10.10;99.90;;;;;;483764;246;27797;-77
2023/02/18 08:56:38;;;;;;;20.10;15.23;;;10.10;99.90;;;;;;478946;246;27907;-77
2023/02/18 08:58:39;;;;;;;18.07;14.40;;;10.10;99.90;;;;;;469081;253;27444;-78
2023/02/18 09:00:41;;;;;;;18.50;14.53;;;10.20;99.90;;;;;;470382;249;28041;-79
2023/02/18 09:02:42;;;;;;;21.10;15.73;;;10.20;99.90;;;;;;475505;250;27914;-79
2023/02/18 09:04:43;;;;;;;14.57;12.33;;;10.20;99.90;;;;;;473293;251;28708;-80
2023/02/18 09:06:45;;;;;;;18.20;14.00;;;10.20;99.90;;;;;;474177;249;28483;-78
2023/02/18 09:08:46;;;;;;;18.80;14.20;;;10.20;99.90;;;;;;474625;250;27933;-79
2023/02/18 09:10:47;;;;;;;16.93;13.60;;;10.20;99.90;;;;;;473137;251;27865;-79
2023/02/18 09:12:48;;;;;;;18.50;14.80;;;10.40;99.90;;;;;;473130;251;27971;-79
2023/02/18 09:14:49;;;;;;;18.70;14.03;;;10.40;99.90;;;;;;472849;251;28167;-79
2023/02/18 09:16:51;;;;;;;16.00;13.20;;;10.40;99.90;;;;;;473303;251;28121;-79
2023/02/18 09:18:52;;;;;;;17.47;14.17;;;10.50;99.90;;;;;;473317;251;28637;-78
2023/02/18 09:20:53;;;;;;;20.53;14.07;;;10.50;99.90;;;;;;473280;251;28550;-79
2023/02/18 09:22:54;;;;;;;16.43;12.50;;;10.50;99.90;;;;;;473367;251;27976;-79
2023/02/18 09:24:56;;;;;;;18.57;13.10;;;10.50;99.90;;;;;;473190;251;27899;-78
2023/02/18 09:26:57;;;;;;;16.23;13.37;;;10.50;99.90;;;;;;473221;251;28045;-78
2023/02/18 09:28:58;;;;;;;16.75;13.38;;;10.50;99.90;;;;;;467617;245;36424;-78
2023/02/18 09:30:59;;;;;;;20.37;15.13;;;10.50;99.90;;;;;;476071;249;27501;-77
2023/02/18 09:33:01;;;;;;;15.57;12.27;;;10.50;99.90;;;;;;475788;247;29079;-77
2023/02/18 09:35:02;;;;;;;18.43;13.10;;;10.50;99.90;;;;;;479204;245;28354;-78
2023/02/18 09:37:03;;;;;;;14.63;12.03;;;10.40;99.90;;;;;;482033;242;27913;-78
2023/02/18 09:39:05;;;;;;;16.77;13.33;;;10.40;99.90;;;;;;468937;253;28044;-78
2023/02/18 09:41:06;;;;;;;15.67;12.23;;;10.40;99.90;;;;;;470088;253;28058;-79
2023/02/18 09:43:07;;;;;;;16.73;12.97;;;10.40;99.90;;;;;;469037;253;27967;-79
2023/02/18 09:45:08;;;;;;;15.37;13.30;;;10.40;99.90;;;;;;469129;253;28507;-80
2023/02/18 09:47:10;;;;;;;16.20;13.27;;;10.40;99.90;;;;;;470126;253;28650;-79
2023/02/18 09:49:12;;;;;;;13.33;11.70;;;10.40;99.90;;;;;;469094;253;28017;-79
2023/02/18 09:51:13;;;;;;;17.30;14.23;;;10.40;99.90;;;;;;469205;253;28168;-78
2023/02/18 09:53:14;;;;;;;18.20;14.40;;;10.40;99.90;;;;;;470125;253;28396;-77
2023/02/18 09:55:16;;;;;;;16.80;12.90;;;10.40;99.90;;;;;;469051;253;28642;-77
2023/02/18 09:57:17;;;;;;;17.53;14.07;;;10.40;99.90;;;;;;469163;253;28005;-77
2023/02/18 09:59:18;;;;;;;15.60;12.67;;;10.40;99.90;;;;;;470096;253;28051;-78
2023/02/18 10:01:19;;;;;;;16.43;12.93;;;10.50;99.90;;;;;;475535;249;27954;-77
2023/02/18 10:03:21;;;;;;;14.97;12.97;;;10.40;99.90;;;;;;469161;253;28138;-77
2023/02/18 10:05:22;;;;;;;16.13;13.63;;;10.40;99.90;;;;;;470075;253;28237;-77
2023/02/18 10:07:23;;;;;;;15.00;12.87;;;10.40;99.90;;;;;;469136;253;28336;-78
2023/02/18 10:09:24;;;;;;;15.80;12.83;;;10.40;99.90;;;;;;468932;253;28538;-77
2023/02/18 10:11:26;;;;;;;15.97;12.43;;;10.40;99.90;;;;;;469974;249;28194;-77
2023/02/18 10:13:27;;;;;;;16.10;12.87;;;10.40;99.90;;;;;;469043;253;28055;-78
2023/02/18 10:15:28;;;;;;;20.23;13.20;;;10.40;99.90;;;;;;469125;253;27975;-78
2023/02/18 10:17:29;;;;;;;17.40;13.33;;;10.30;99.90;;;;;;470062;253;28179;-78
2023/02/18 10:19:31;;;;;;;16.60;12.67;;;10.30;99.90;;;;;;469101;253;28073;-79
2023/02/18 10:21:33;;;;;;;17.43;13.57;;;10.30;99.90;;;;;;469016;253;28586;-78
2023/02/18 10:23:33;;;;;;;14.47;11.90;;;10.30;99.90;;;;;;473250;244;28590;-78
2023/02/18 10:25:35;;;;;;;16.60;13.60;;;10.20;99.90;;;;;;476654;249;27954;-78